Time;durP1;ratioP1;P1;durP2;ratioP2;P2;SDS_P1;SDS_P2;PMS_P1;PMS_P2;Temp;Humidity;BMP_temperature;BMP_pressure;BME280_temperature;BME280_humidity;BME280_pressure;Samples;Min_cycle;Max_cycle;Signal;HPM_P1;HPM_P2
2024/02/24 00:01:40;;;;;;;5.90;2.70;;;5.30;1.00;;;;;;5143117;27;20490;-67
2024/02/24 00:04:07;;;;;;;3.57;2.10;;;5.30;1.00;;;;;;5141725;27;20493;-67
2024/02/24 00:06:35;;;;;;;10.63;3.70;;;5.20;1.00;;;;;;5143619;27;20481;-67
2024/02/24 00:09:02;;;;;;;8.23;3.57;;;5.20;1.00;;;;;;5143603;27;20462;-66
2024/02/24 00:11:32;;;;;;;7.13;4.30;;;5.20;12.30;;;;;;5144080;27;20884;-67
2024/02/24 00:14:00;;;;;;;5.23;3.13;;;5.10;24.50;;;;;;5142273;27;20499;-67
2024/02/24 00:16:29;;;;;;;8.07;3.00;;;5.10;88.60;;;;;;5141945;27;20497;-67
2024/02/24 00:18:59;;;;;;;13.40;4.10;;;5.00;99.90;;;;;;5141839;27;20595;-67
2024/02/24 00:21:26;;;;;;;7.80;3.50;;;4.90;99.90;;;;;;5107763;27;20530;-66
2024/02/24 00:23:54;;;;;;;5.97;2.90;;;4.90;99.90;;;;;;5057534;28;20523;-68
2024/02/24 00:26:21;;;;;;;7.40;3.43;;;4.90;99.90;;;;;;5057353;28;20752;-67
2024/02/24 00:28:48;;;;;;;6.63;3.70;;;4.80;99.90;;;;;;5056924;28;20450;-67
2024/02/24 00:31:16;;;;;;;7.90;4.10;;;4.80;99.90;;;;;;5056798;28;20762;-66
2024/02/24 00:33:44;;;;;;;5.10;3.00;;;4.70;99.90;;;;;;5058053;28;20441;-67
2024/02/24 00:36:12;;;;;;;9.67;3.30;;;4.70;99.90;;;;;;5058338;28;20511;-67
2024/02/24 00:38:39;;;;;;;9.37;3.97;;;4.70;99.90;;;;;;5058290;28;20551;-67
2024/02/24 00:41:07;;;;;;;7.60;2.87;;;4.70;1.00;;;;;;5058380;28;20490;-67
2024/02/24 00:43:34;;;;;;;8.13;3.53;;;4.70;1.00;;;;;;5058797;28;20880;-67
2024/02/24 00:46:01;;;;;;;6.57;3.23;;;4.70;1.00;;;;;;5057824;28;20511;-67
2024/02/24 00:48:29;;;;;;;6.03;3.30;;;4.70;99.90;;;;;;5057068;28;20441;-67
2024/02/24 00:50:58;;;;;;;5.43;3.43;;;4.70;1.00;;;;;;5056513;28;20465;-68
2024/02/24 00:53:25;;;;;;;6.33;2.50;;;4.70;1.00;;;;;;5056031;28;20962;-67
2024/02/24 00:55:53;;;;;;;4.97;2.23;;;4.60;1.00;;;;;;5055650;28;20462;-67
2024/02/24 00:58:20;;;;;;;5.43;2.50;;;4.60;1.00;;;;;;5055821;28;20466;-67
2024/02/24 01:00:47;;;;;;;5.67;2.83;;;4.60;1.00;;;;;;5055250;28;20501;-67
2024/02/24 01:03:15;;;;;;;3.57;2.40;;;4.60;1.00;;;;;;5056255;28;20807;-67
2024/02/24 01:05:44;;;;;;;3.30;2.07;;;4.50;1.00;;;;;;5055306;28;20927;-67
2024/02/24 01:08:13;;;;;;;3.30;2.10;;;4.50;1.00;;;;;;5055857;28;20466;-67
2024/02/24 01:10:40;;;;;;;4.00;1.97;;;4.50;1.00;;;;;;5057313;28;20835;-67
2024/02/24 01:13:08;;;;;;;5.00;2.40;;;4.50;1.00;;;;;;5057519;28;20458;-67
2024/02/24 01:15:35;;;;;;;3.60;2.50;;;4.50;1.00;;;;;;5056626;28;20466;-67
2024/02/24 01:18:02;;;;;;;3.27;2.00;;;4.50;1.00;;;;;;5057537;28;20717;-67
2024/02/24 01:20:30;;;;;;;3.43;2.07;;;4.60;1.00;;;;;;5056960;28;20539;-68
2024/02/24 01:22:59;;;;;;;4.93;2.00;;;4.60;1.00;;;;;;5057464;28;20552;-66
2024/02/24 01:25:28;;;;;;;2.90;2.00;;;4.70;1.00;;;;;;5058531;28;20486;-67
2024/02/24 01:27:55;;;;;;;4.13;2.30;;;4.70;1.00;;;;;;5056584;28;20492;-67
2024/02/24 01:30:24;;;;;;;3.63;2.10;;;4.70;1.00;;;;;;5058234;28;20455;-67
2024/02/24 01:32:51;;;;;;;2.80;1.90;;;4.70;1.00;;;;;;5057756;28;20502;-67
2024/02/24 01:35:19;;;;;;;5.60;1.87;;;4.60;1.00;;;;;;5058225;28;20748;-67
2024/02/24 01:37:46;;;;;;;2.93;1.97;;;4.70;1.00;;;;;;5058630;28;20515;-67
2024/02/24 01:40:14;;;;;;;3.87;2.07;;;4.60;1.00;;;;;;5057615;28;20489;-68
2024/02/24 01:42:44;;;;;;;3.70;2.07;;;4.60;1.00;;;;;;5058427;28;20491;-67
2024/02/24 01:45:14;;;;;;;2.70;1.70;;;4.50;1.00;;;;;;5058160;28;20576;-65
2024/02/24 01:47:41;;;;;;;3.70;2.33;;;4.50;99.90;;;;;;5058015;28;20757;-67
2024/02/24 01:50:11;;;;;;;4.57;1.90;;;4.50;99.90;;;;;;5058779;28;20839;-67
2024/02/24 01:52:38;;;;;;;3.40;1.90;;;4.50;99.90;;;;;;5057649;28;20473;-67
2024/02/24 01:55:07;;;;;;;4.10;2.20;;;4.60;99.90;;;;;;5058312;28;20531;-67
2024/02/24 01:57:41;;;;;;;3.83;2.17;;;4.60;1.00;;;;;;5058395;28;20488;-67
2024/02/24 02:00:11;;;;;;;3.10;1.97;;;4.60;99.90;;;;;;5059601;28;20561;-67
2024/02/24 02:02:39;;;;;;;3.90;2.23;;;4.60;99.90;;;;;;5058871;28;20495;-67
2024/02/24 02:05:07;;;;;;;4.50;1.90;;;4.60;99.90;;;;;;5059256;28;20469;-68
2024/02/24 02:07:35;;;;;;;2.93;1.90;;;4.60;99.90;;;;;;5058918;28;20463;-68
2024/02/24 02:10:04;;;;;;;2.70;1.60;;;4.60;1.00;;;;;;5058533;28;20459;-67
2024/02/24 02:12:34;;;;;;;3.97;2.00;;;4.60;99.90;;;;;;5059181;28;20463;-68
2024/02/24 02:15:03;;;;;;;2.70;1.80;;;4.60;99.90;;;;;;5059690;28;20470;-67
2024/02/24 02:17:32;;;;;;;3.10;1.93;;;4.50;99.90;;;;;;5060539;28;20489;-67
2024/02/24 02:20:02;;;;;;;3.00;2.10;;;4.50;99.90;;;;;;5059275;28;20458;-68
2024/02/24 02:22:31;;;;;;;3.70;2.27;;;4.50;1.00;;;;;;5060169;28;20967;-67
2024/02/24 02:24:58;;;;;;;3.33;1.97;;;4.50;99.90;;;;;;5059362;28;20512;-68
2024/02/24 02:27:26;;;;;;;2.73;1.90;;;4.60;99.90;;;;;;5059937;28;20873;-68
2024/02/24 02:29:53;;;;;;;2.67;1.80;;;4.50;1.00;;;;;;5062464;28;20499;-68
2024/02/24 02:32:20;;;;;;;3.13;2.07;;;4.40;1.00;;;;;;5062557;28;20454;-69
2024/02/24 02:34:48;;;;;;;2.90;1.93;;;4.40;1.00;;;;;;5062980;28;20458;-67
2024/02/24 02:37:15;;;;;;;2.90;2.30;;;4.40;1.00;;;;;;5062613;28;20525;-69
2024/02/24 02:39:44;;;;;;;2.80;2.10;;;4.40;1.00;;;;;;5063086;28;20463;-68
2024/02/24 02:42:12;;;;;;;3.83;2.40;;;4.50;1.00;;;;;;5061958;28;20533;-69
2024/02/24 02:44:39;;;;;;;4.67;2.53;;;4.50;1.00;;;;;;5062892;28;20467;-68
2024/02/24 02:47:07;;;;;;;3.27;2.30;;;4.40;1.00;;;;;;5061969;28;20876;-68
2024/02/24 02:49:34;;;;;;;2.90;2.20;;;4.40;1.00;;;;;;5063204;28;20902;-68
2024/02/24 02:52:01;;;;;;;3.07;2.20;;;4.40;1.00;;;;;;5063150;28;20432;-67
2024/02/24 02:54:29;;;;;;;3.57;2.63;;;4.30;1.00;;;;;;5060804;28;20516;-67
2024/02/24 02:56:57;;;;;;;5.70;2.23;;;4.40;1.00;;;;;;5061797;28;20462;-67
2024/02/24 02:59:25;;;;;;;3.37;2.33;;;4.30;1.00;;;;;;5057829;28;20957;-68
2024/02/24 03:01:52;;;;;;;4.00;2.23;;;4.30;1.00;;;;;;5061751;28;20498;-68
2024/02/24 03:04:20;;;;;;;6.70;2.50;;;4.20;1.00;;;;;;5061195;28;20509;-67
2024/02/24 03:06:47;;;;;;;3.70;2.57;;;4.20;27.70;;;;;;5061836;28;20473;-68
2024/02/24 03:09:14;;;;;;;4.53;2.43;;;4.20;65.50;;;;;;5061377;28;20462;-68
2024/02/24 03:11:41;;;;;;;3.80;2.23;;;4.20;1.00;;;;;;5060994;28;20462;-67
2024/02/24 03:14:10;;;;;;;3.20;2.33;;;4.20;99.90;;;;;;5060714;28;20458;-68
2024/02/24 03:16:38;;;;;;;3.70;2.30;;;4.20;99.90;;;;;;5060011;28;20466;-67
2024/02/24 03:19:06;;;;;;;2.90;2.17;;;4.20;99.90;;;;;;5061247;28;20462;-69
2024/02/24 03:21:34;;;;;;;3.00;1.97;;;4.20;99.90;;;;;;5060922;28;20506;-67
2024/02/24 03:24:02;;;;;;;5.43;1.77;;;4.20;99.90;;;;;;5061400;28;20903;-68
2024/02/24 03:26:29;;;;;;;6.77;2.33;;;4.20;99.90;;;;;;5061335;28;20473;-67
2024/02/24 03:28:57;;;;;;;3.23;1.97;;;4.20;99.90;;;;;;5061116;28;20863;-68
2024/02/24 03:31:26;;;;;;;3.80;2.40;;;4.20;99.90;;;;;;5061490;28;20560;-68
2024/02/24 03:33:54;;;;;;;3.00;2.10;;;4.10;99.90;;;;;;5061816;28;20467;-68
2024/02/24 03:36:21;;;;;;;3.30;2.07;;;4.20;99.90;;;;;;5061274;28;20478;-67
2024/02/24 03:38:51;;;;;;;3.17;2.23;;;4.20;99.90;;;;;;5060468;28;20821;-68
2024/02/24 03:41:19;;;;;;;3.20;2.00;;;4.10;99.90;;;;;;5061087;28;20522;-68
2024/02/24 03:43:46;;;;;;;3.00;2.00;;;4.10;99.90;;;;;;5060746;28;20470;-67
2024/02/24 03:46:13;;;;;;;3.60;2.40;;;4.10;1.00;;;;;;5059353;28;20494;-67
2024/02/24 03:48:45;;;;;;;3.13;1.90;;;4.10;1.00;;;;;;5061573;28;20494;-68
2024/02/24 03:51:13;;;;;;;3.40;2.10;;;4.10;1.00;;;;;;5060933;28;20538;-67
2024/02/24 03:53:40;;;;;;;3.57;2.10;;;4.20;99.90;;;;;;5060644;28;20569;-67
2024/02/24 03:56:08;;;;;;;3.70;2.27;;;4.20;99.90;;;;;;5061421;28;20437;-68
2024/02/24 03:58:35;;;;;;;2.77;2.17;;;4.20;1.00;;;;;;5078008;27;20478;-68
2024/02/24 04:01:03;;;;;;;3.20;2.10;;;4.20;1.00;;;;;;5060779;27;20505;-68
2024/02/24 04:03:30;;;;;;;3.23;1.90;;;4.30;99.90;;;;;;5093347;27;20859;-68
2024/02/24 04:05:59;;;;;;;3.27;2.07;;;4.30;99.90;;;;;;5145704;27;20550;-68
2024/02/24 04:08:26;;;;;;;2.70;2.03;;;4.40;99.90;;;;;;5144479;27;20434;-68
2024/02/24 04:10:53;;;;;;;3.77;2.00;;;4.40;99.90;;;;;;5145472;27;20466;-69
2024/02/24 04:13:21;;;;;;;2.97;1.90;;;4.40;99.90;;;;;;5146218;27;20482;-68
2024/02/24 04:15:50;;;;;;;2.80;1.83;;;4.40;91.20;;;;;;5109516;27;20518;-69
2024/02/24 04:18:17;;;;;;;2.70;1.67;;;4.40;81.30;;;;;;5060659;28;20470;-68
2024/02/24 04:20:45;;;;;;;3.03;1.93;;;4.40;1.00;;;;;;5060198;28;20504;-69
2024/02/24 04:23:14;;;;;;;3.03;2.10;;;4.40;1.00;;;;;;5059522;28;20505;-69
2024/02/24 04:25:41;;;;;;;4.20;2.03;;;4.40;1.00;;;;;;5060282;28;20451;-69
2024/02/24 04:28:08;;;;;;;3.77;2.00;;;4.30;1.00;;;;;;5060835;28;20467;-68
2024/02/24 04:30:37;;;;;;;3.77;2.00;;;4.20;1.00;;;;;;5060530;28;20588;-69
2024/02/24 04:33:04;;;;;;;2.60;1.90;;;4.20;1.00;;;;;;5060405;28;20467;-72
2024/02/24 04:35:32;;;;;;;3.40;2.20;;;4.20;1.00;;;;;;5058978;28;20459;-68
2024/02/24 04:37:59;;;;;;;3.60;2.10;;;4.20;1.00;;;;;;5061444;28;20526;-68
2024/02/24 04:40:28;;;;;;;4.93;2.40;;;4.20;1.00;;;;;;5061121;28;20963;-69
2024/02/24 04:42:55;;;;;;;3.23;2.03;;;4.30;1.00;;;;;;5060419;28;20501;-68
2024/02/24 04:45:22;;;;;;;2.87;2.03;;;4.30;1.00;;;;;;5060894;28;20482;-68
2024/02/24 04:47:49;;;;;;;2.83;2.03;;;4.30;1.00;;;;;;5060329;28;20569;-68
2024/02/24 04:50:17;;;;;;;3.50;2.13;;;4.30;1.00;;;;;;5059714;28;20464;-68
2024/02/24 04:52:44;;;;;;;2.87;2.10;;;4.40;1.00;;;;;;5061225;28;20501;-69
2024/02/24 04:55:11;;;;;;;3.40;2.00;;;4.40;1.00;;;;;;5061011;28;20939;-69
2024/02/24 04:57:39;;;;;;;3.47;1.90;;;4.40;1.00;;;;;;5060364;28;20451;-66
2024/02/24 05:00:08;;;;;;;2.70;1.70;;;4.40;1.00;;;;;;5060108;28;20779;-68
2024/02/24 05:02:37;;;;;;;3.87;2.30;;;4.50;1.00;;;;;;5059500;28;20497;-68
2024/02/24 05:05:05;;;;;;;3.17;1.90;;;4.50;1.00;;;;;;5059526;28;20487;-67
2024/02/24 05:07:33;;;;;;;3.33;2.00;;;4.60;99.90;;;;;;5059061;28;20500;-68
2024/02/24 05:10:00;;;;;;;3.47;1.93;;;4.60;99.90;;;;;;5059326;28;20470;-68
2024/02/24 05:12:28;;;;;;;3.93;2.07;;;4.60;1.00;;;;;;5059099;28;20454;-68
2024/02/24 05:14:56;;;;;;;2.73;1.90;;;4.60;99.90;;;;;;5059110;28;20816;-68
2024/02/24 05:17:23;;;;;;;3.70;1.90;;;4.70;1.00;;;;;;5058360;28;20469;-67
2024/02/24 05:19:51;;;;;;;2.80;2.00;;;4.70;99.90;;;;;;5058957;28;20480;-68
2024/02/24 05:22:18;;;;;;;5.37;2.10;;;4.70;99.90;;;;;;5059052;28;20930;-67
2024/02/24 05:24:46;;;;;;;3.30;2.00;;;4.70;99.90;;;;;;5058900;28;20826;-67
2024/02/24 05:27:13;;;;;;;3.97;2.10;;;4.70;4.70;;;;;;5058854;28;20893;-67
2024/02/24 05:29:46;;;;;;;3.50;2.57;;;4.70;1.00;;;;;;5058275;28;20850;-68
2024/02/24 05:32:16;;;;;;;2.57;1.90;;;4.70;99.90;;;;;;5056374;28;20450;-66
2024/02/24 05:34:44;;;;;;;3.40;2.07;;;4.70;1.00;;;;;;5056969;28;20462;-67
2024/02/24 05:37:11;;;;;;;3.10;1.90;;;4.80;1.00;;;;;;5057008;28;20493;-66
2024/02/24 05:39:38;;;;;;;3.20;1.63;;;4.80;84.10;;;;;;5057331;28;20486;-67
2024/02/24 05:42:06;;;;;;;3.93;2.30;;;4.80;1.00;;;;;;5057333;28;20806;-67
2024/02/24 05:44:33;;;;;;;3.17;2.30;;;4.80;1.00;;;;;;5056514;28;20478;-67
2024/02/24 05:47:01;;;;;;;2.80;1.90;;;4.80;1.00;;;;;;5046822;28;21093;-66
2024/02/24 05:49:30;;;;;;;4.37;2.57;;;4.80;1.00;;;;;;5057565;28;20463;-68
2024/02/24 05:51:57;;;;;;;3.70;2.20;;;4.80;1.00;;;;;;5057688;28;20482;-67
2024/02/24 05:54:24;;;;;;;3.80;2.70;;;4.80;1.00;;;;;;5056233;28;20525;-67
2024/02/24 05:56:52;;;;;;;3.43;2.30;;;4.80;1.00;;;;;;5056386;28;20458;-67
2024/02/24 05:59:20;;;;;;;3.20;2.30;;;4.80;1.00;;;;;;5057405;28;20497;-67
2024/02/24 06:01:47;;;;;;;3.47;2.13;;;4.80;1.00;;;;;;5057340;28;20506;-67
2024/02/24 06:04:16;;;;;;;4.40;2.50;;;4.80;1.00;;;;;;5058522;28;20732;-67
2024/02/24 06:06:47;;;;;;;3.77;2.50;;;4.80;1.00;;;;;;5057377;28;20537;-68
2024/02/24 06:09:14;;;;;;;3.80;2.43;;;4.90;1.00;;;;;;5058210;28;20463;-68
2024/02/24 06:11:42;;;;;;;3.57;2.73;;;4.90;1.00;;;;;;5058684;28;20527;-68
2024/02/24 06:14:09;;;;;;;4.53;2.70;;;4.90;1.00;;;;;;5056915;28;20450;-68
2024/02/24 06:16:36;;;;;;;3.97;2.73;;;4.90;1.00;;;;;;5057868;28;20920;-69
2024/02/24 06:19:04;;;;;;;4.43;2.57;;;4.90;97.90;;;;;;5058347;28;20494;-68
2024/02/24 06:21:32;;;;;;;3.43;2.80;;;5.00;99.90;;;;;;5056775;28;20469;-67
2024/02/24 06:24:01;;;;;;;3.70;2.60;;;5.00;99.90;;;;;;5055532;28;20462;-67
2024/02/24 06:26:28;;;;;;;4.07;2.60;;;5.00;1.00;;;;;;5053840;28;20479;-68
2024/02/24 06:28:56;;;;;;;4.00;2.80;;;5.00;1.00;;;;;;5053890;28;20527;-68
2024/02/24 06:31:23;;;;;;;3.97;3.07;;;5.00;99.90;;;;;;5056292;28;20537;-68
2024/02/24 06:33:51;;;;;;;4.80;2.80;;;5.00;99.90;;;;;;5056432;28;20457;-67
2024/02/24 06:36:18;;;;;;;4.50;3.63;;;5.00;99.90;;;;;;5055483;28;20454;-68
2024/02/24 06:38:45;;;;;;;3.67;2.70;;;5.00;99.90;;;;;;5054140;28;20821;-65
2024/02/24 06:41:15;;;;;;;4.20;2.63;;;5.10;1.00;;;;;;5054084;28;20493;-64
2024/02/24 06:43:42;;;;;;;4.50;2.70;;;5.10;99.90;;;;;;5053533;28;20490;-65
2024/02/24 06:46:11;;;;;;;4.47;3.00;;;5.10;99.90;;;;;;5053823;28;20489;-65
2024/02/24 06:48:38;;;;;;;3.43;2.40;;;5.10;99.90;;;;;;5053777;28;20501;-64
2024/02/24 06:51:05;;;;;;;4.70;3.17;;;5.10;99.90;;;;;;5053649;28;20508;-64
2024/02/24 06:53:33;;;;;;;11.50;8.10;;;5.10;99.90;;;;;;5053660;28;20481;-64
2024/02/24 06:56:05;;;;;;;22.10;13.37;;;5.10;1.00;;;;;;5053212;28;20462;-65
2024/02/24 06:58:35;;;;;;;10.37;6.60;;;5.00;99.90;;;;;;5053979;28;20898;-64
2024/02/24 07:01:04;;;;;;;17.03;10.73;;;5.00;99.90;;;;;;5053914;27;20569;-64
2024/02/24 07:03:32;;;;;;;5.77;4.40;;;5.00;99.90;;;;;;5091569;27;20487;-65
2024/02/24 07:06:01;;;;;;;11.90;7.87;;;5.00;99.90;;;;;;5087851;27;20456;-64
2024/02/24 07:08:28;;;;;;;4.63;3.30;;;5.00;99.90;;;;;;5156738;27;20461;-65
2024/02/24 07:10:56;;;;;;;8.43;5.80;;;5.00;99.90;;;;;;5156827;27;20552;-65
2024/02/24 07:13:23;;;;;;;30.40;17.00;;;5.00;99.90;;;;;;5158285;27;20513;-65
2024/02/24 07:15:52;;;;;;;18.30;10.77;;;5.00;99.90;;;;;;5160741;27;20457;-65
2024/02/24 07:18:19;;;;;;;10.30;6.67;;;5.00;1.00;;;;;;5160916;27;20552;-65
2024/02/24 07:20:47;;;;;;;6.33;4.37;;;5.00;1.00;;;;;;5162183;27;20479;-64
2024/02/24 07:23:14;;;;;;;11.40;7.57;;;5.00;99.90;;;;;;5162068;27;20515;-65
2024/02/24 07:25:41;;;;;;;8.93;6.60;;;5.00;99.90;;;;;;5162352;27;20458;-66
2024/02/24 07:28:09;;;;;;;6.97;4.80;;;5.00;1.00;;;;;;5162407;27;20453;-66
2024/02/24 07:30:36;;;;;;;6.67;3.80;;;5.00;1.00;;;;;;5160867;27;20934;-65
2024/02/24 07:33:05;;;;;;;6.67;4.20;;;5.00;1.00;;;;;;5160361;27;20460;-65
2024/02/24 07:35:32;;;;;;;5.00;3.90;;;5.10;1.00;;;;;;5160555;27;20454;-65
2024/02/24 07:38:00;;;;;;;7.93;3.53;;;5.00;1.00;;;;;;5160333;27;20576;-66
2024/02/24 07:40:27;;;;;;;4.53;2.70;;;5.10;1.00;;;;;;5160470;27;20521;-66
2024/02/24 07:42:54;;;;;;;3.90;3.00;;;5.10;1.00;;;;;;5160375;27;21033;-66
2024/02/24 07:45:23;;;;;;;5.33;3.20;;;5.10;1.00;;;;;;5160475;27;20458;-66
2024/02/24 07:47:50;;;;;;;4.27;3.00;;;5.20;1.00;;;;;;5161861;27;20442;-65
2024/02/24 07:50:19;;;;;;;4.40;2.57;;;5.30;1.00;;;;;;5161378;27;20523;-65
2024/02/24 07:52:46;;;;;;;3.47;2.50;;;5.30;99.90;;;;;;5161880;27;20578;-66
2024/02/24 07:55:14;;;;;;;3.43;2.17;;;5.30;99.90;;;;;;5160844;27;20524;-66
2024/02/24 07:57:41;;;;;;;3.43;2.23;;;5.30;99.90;;;;;;5160607;27;20454;-66
2024/02/24 08:00:10;;;;;;;3.60;2.23;;;5.40;99.90;;;;;;5161191;27;20464;-66
2024/02/24 08:02:37;;;;;;;3.43;2.63;;;5.50;99.90;;;;;;5160762;27;20485;-67
2024/02/24 08:05:05;;;;;;;3.70;2.70;;;5.50;99.90;;;;;;5160657;27;20457;-66
2024/02/24 08:07:34;;;;;;;4.10;2.80;;;5.40;95.00;;;;;;5160898;27;20458;-65
2024/02/24 08:10:01;;;;;;;4.60;2.00;;;5.40;99.90;;;;;;5161113;27;20537;-66
2024/02/24 08:12:28;;;;;;;5.17;2.60;;;5.40;99.90;;;;;;5161526;27;20454;-66
2024/02/24 08:14:56;;;;;;;3.70;2.17;;;5.40;99.90;;;;;;5161348;27;20460;-65
2024/02/24 08:17:23;;;;;;;4.00;2.30;;;5.40;99.90;;;;;;5161138;27;20483;-66
2024/02/24 08:19:50;;;;;;;3.50;2.40;;;5.50;99.90;;;;;;5160529;27;20922;-66
2024/02/24 08:22:17;;;;;;;2.80;1.93;;;5.50;99.90;;;;;;5159888;27;20454;-68
2024/02/24 08:24:46;;;;;;;3.97;1.93;;;5.50;99.90;;;;;;5159760;27;20760;-67
2024/02/24 08:27:14;;;;;;;3.40;2.00;;;5.50;99.90;;;;;;5160147;27;20454;-69
2024/02/24 08:29:41;;;;;;;3.53;2.37;;;5.40;99.90;;;;;;5159998;27;20517;-69
2024/02/24 08:32:08;;;;;;;3.87;2.00;;;5.40;1.00;;;;;;5160402;27;20865;-70
2024/02/24 08:34:36;;;;;;;4.60;2.50;;;5.30;1.00;;;;;;5160243;27;20453;-70
2024/02/24 08:37:03;;;;;;;3.30;2.00;;;5.40;1.00;;;;;;5161259;27;20732;-71
2024/02/24 08:39:33;;;;;;;3.00;1.80;;;5.30;1.00;;;;;;5162040;27;20464;-68
2024/02/24 08:42:02;;;;;;;3.47;2.33;;;5.30;1.00;;;;;;5160799;27;20746;-71
2024/02/24 08:44:30;;;;;;;3.23;2.43;;;5.30;99.90;;;;;;5159759;27;20493;-69
2024/02/24 08:46:57;;;;;;;4.43;2.40;;;5.30;99.90;;;;;;5158697;27;20539;-68
2024/02/24 08:49:24;;;;;;;3.67;2.40;;;5.30;1.00;;;;;;5158784;27;20769;-67
2024/02/24 08:51:52;;;;;;;3.47;2.33;;;5.30;1.00;;;;;;5158902;27;20453;-68
2024/02/24 08:54:20;;;;;;;4.60;2.77;;;5.20;1.00;;;;;;5158152;27;20561;-68
2024/02/24 08:56:48;;;;;;;5.17;2.47;;;5.10;1.00;;;;;;5157871;27;20469;-67
2024/02/24 08:59:17;;;;;;;4.37;2.30;;;5.20;99.90;;;;;;5159529;27;20501;-68
2024/02/24 09:01:45;;;;;;;6.33;2.53;;;5.20;99.90;;;;;;5160519;27;20501;-67
2024/02/24 09:04:12;;;;;;;5.07;2.50;;;5.20;1.00;;;;;;5159880;27;20492;-67
2024/02/24 09:06:39;;;;;;;3.50;2.27;;;5.30;99.90;;;;;;5159210;27;20548;-66
2024/02/24 09:09:07;;;;;;;3.77;2.43;;;5.40;1.00;;;;;;5159213;27;20824;-66
2024/02/24 09:11:35;;;;;;;4.70;2.60;;;5.40;99.90;;;;;;5159633;27;20779;-68
2024/02/24 09:14:02;;;;;;;7.20;2.53;;;5.30;1.00;;;;;;5160202;27;20869;-67
2024/02/24 09:16:31;;;;;;;10.60;7.10;;;5.40;99.90;;;;;;5159669;27;20493;-67
2024/02/24 09:18:58;;;;;;;5.90;3.90;;;5.40;99.90;;;;;;5106226;27;20549;-67
2024/02/24 09:21:26;;;;;;;4.43;2.80;;;5.50;99.90;;;;;;5054118;28;20860;-66
2024/02/24 09:23:53;;;;;;;3.90;1.97;;;5.50;99.90;;;;;;5053139;28;20543;-67
2024/02/24 09:26:20;;;;;;;4.30;2.87;;;5.50;1.00;;;;;;5053584;28;20462;-68
2024/02/24 09:28:48;;;;;;;4.47;2.50;;;5.50;1.00;;;;;;5054308;28;20549;-68
2024/02/24 09:31:15;;;;;;;5.90;3.30;;;5.40;99.90;;;;;;5054265;28;20432;-68
2024/02/24 09:33:44;;;;;;;3.70;2.27;;;5.20;99.90;;;;;;5054462;28;20511;-68
2024/02/24 09:36:11;;;;;;;4.73;3.23;;;5.20;1.00;;;;;;5054449;28;20470;-68
2024/02/24 09:38:39;;;;;;;5.80;3.47;;;5.20;1.00;;;;;;5054233;28;20462;-67
2024/02/24 09:41:06;;;;;;;4.73;3.00;;;5.20;99.90;;;;;;5054553;28;20462;-67
2024/02/24 09:43:35;;;;;;;4.60;2.90;;;5.10;99.90;;;;;;5054075;28;20516;-66
2024/02/24 09:46:02;;;;;;;6.53;2.53;;;5.10;1.00;;;;;;5054578;28;20922;-67
2024/02/24 09:48:31;;;;;;;3.70;2.37;;;5.10;99.90;;;;;;5054079;28;20498;-66
2024/02/24 09:51:00;;;;;;;3.87;2.53;;;5.20;99.90;;;;;;5054497;28;20553;-66
2024/02/24 09:53:27;;;;;;;2.60;1.67;;;5.30;99.90;;;;;;5054033;28;20478;-65
2024/02/24 09:55:55;;;;;;;6.20;3.80;;;5.30;1.00;;;;;;5054601;28;20466;-68
2024/02/24 09:58:25;;;;;;;4.00;2.40;;;5.40;99.90;;;;;;5053688;28;20519;-66
2024/02/24 10:00:52;;;;;;;3.50;2.33;;;5.50;78.00;;;;;;5054030;28;20464;-66
2024/02/24 10:03:25;;;;;;;3.57;2.30;;;5.50;78.20;;;;;;5054031;28;20490;-66
2024/02/24 10:05:52;;;;;;;3.90;2.90;;;5.70;99.90;;;;;;5054346;28;20544;-66
2024/02/24 10:08:23;;;;;;;3.87;2.00;;;6.10;99.90;;;;;;5053926;28;20559;-66
2024/02/24 10:10:51;;;;;;;3.60;2.57;;;6.30;1.00;;;;;;5063302;28;20894;-64
2024/02/24 10:13:19;;;;;;;4.73;2.40;;;6.50;1.00;;;;;;5072721;28;20764;-64
2024/02/24 10:15:47;;;;;;;3.23;2.30;;;6.50;1.00;;;;;;5073581;28;20458;-63
2024/02/24 10:18:16;;;;;;;5.10;2.70;;;6.60;99.90;;;;;;5073661;28;20453;-64
2024/02/24 10:20:44;;;;;;;4.03;2.93;;;6.40;72.30;;;;;;5073217;28;20569;-65
2024/02/24 10:23:13;;;;;;;3.70;2.67;;;6.40;99.90;;;;;;5073804;28;20495;-63
2024/02/24 10:25:45;;;;;;;4.23;2.73;;;6.80;99.90;;;;;;5074027;28;20826;-65
2024/02/24 10:28:13;;;;;;;5.33;3.53;;;7.40;99.90;;;;;;5073747;28;20906;-65
2024/02/24 10:30:41;;;;;;;3.57;2.30;;;7.40;99.90;;;;;;5073583;28;20464;-64
2024/02/24 10:33:11;;;;;;;4.50;2.63;;;7.10;99.90;;;;;;5052624;28;20552;-64
2024/02/24 10:35:39;;;;;;;5.13;2.40;;;6.90;1.00;;;;;;5054157;28;20553;-65
2024/02/24 10:38:06;;;;;;;3.20;2.37;;;6.60;99.90;;;;;;5054068;28;20837;-64
2024/02/24 10:40:34;;;;;;;3.93;2.50;;;6.50;99.90;;;;;;5053538;28;20462;-63
2024/02/24 10:43:06;;;;;;;3.03;2.40;;;6.20;99.90;;;;;;5051928;28;20540;-63
2024/02/24 10:45:37;;;;;;;2.73;2.20;;;6.20;1.00;;;;;;5054033;28;20695;-63
2024/02/24 10:48:05;;;;;;;3.10;2.30;;;6.10;1.00;;;;;;5054748;28;20759;-63
2024/02/24 10:50:33;;;;;;;3.57;2.40;;;5.90;1.00;;;;;;5055480;28;21021;-63
2024/02/24 10:53:02;;;;;;;4.23;2.87;;;5.90;1.00;;;;;;5056107;28;20875;-63
2024/02/24 10:55:32;;;;;;;3.07;1.90;;;5.80;1.00;;;;;;5055606;28;20485;-63
2024/02/24 10:58:00;;;;;;;3.40;2.20;;;5.80;55.30;;;;;;5056770;28;20484;-63
2024/02/24 11:00:31;;;;;;;5.10;2.30;;;5.80;1.00;;;;;;5056448;28;20462;-62
2024/02/24 11:02:59;;;;;;;2.93;1.90;;;5.60;1.00;;;;;;5056680;28;20458;-63
2024/02/24 11:05:28;;;;;;;3.60;2.20;;;5.70;1.00;;;;;;5056822;28;20889;-62
2024/02/24 11:07:56;;;;;;;3.90;2.40;;;5.60;1.00;;;;;;5057259;28;20762;-62
2024/02/24 11:10:31;;;;;;;3.10;2.13;;;5.70;1.00;;;;;;5056754;28;20866;-62
2024/02/24 11:13:02;;;;;;;3.63;2.30;;;5.70;1.00;;;;;;5056852;28;20950;-62
2024/02/24 11:15:31;;;;;;;4.20;2.63;;;5.70;1.00;;;;;;5056740;28;20835;-62
2024/02/24 11:17:58;;;;;;;4.60;2.30;;;5.80;99.90;;;;;;5057088;28;20462;-62
2024/02/24 11:20:59;;;;;;;5.07;3.90;;;5.80;1.00;;;;;;5055856;28;20466;-62
2024/02/24 11:23:31;;;;;;;4.70;2.77;;;5.90;1.00;;;;;;4955853;29;20490;-62
2024/02/24 11:26:29;;;;;;;4.10;2.87;;;5.90;99.90;;;;;;4956629;29;20471;-62
2024/02/24 11:29:05;;;;;;;4.87;2.30;;;6.00;99.90;;;;;;5026309;28;20465;-62
2024/02/24 11:31:36;;;;;;;4.20;2.10;;;6.20;99.90;;;;;;5056452;28;20462;-61
2024/02/24 11:34:05;;;;;;;6.03;1.90;;;6.40;99.90;;;;;;5055903;28;20748;-62
2024/02/24 11:36:35;;;;;;;3.73;1.83;;;6.50;99.90;;;;;;5054801;28;20459;-61
2024/02/24 11:39:06;;;;;;;3.37;2.20;;;6.60;99.90;;;;;;5055170;28;20511;-61
2024/02/24 11:41:35;;;;;;;5.03;2.60;;;6.60;9.60;;;;;;5055373;28;20462;-61
2024/02/24 11:44:03;;;;;;;4.70;2.20;;;6.70;28.60;;;;;;5055246;28;20927;-61
2024/02/24 11:46:30;;;;;;;4.90;2.70;;;7.20;1.00;;;;;;5054914;28;20465;-61
2024/02/24 11:49:02;;;;;;;3.40;2.00;;;7.80;1.00;;;;;;5055179;28;20511;-62
2024/02/24 11:51:29;;;;;;;5.00;3.53;;;8.40;99.90;;;;;;5055798;28;20808;-61
2024/02/24 11:53:57;;;;;;;2.70;1.60;;;8.60;42.30;;;;;;5054847;27;20527;-61
2024/02/24 11:56:26;;;;;;;4.00;2.40;;;9.00;1.00;;;;;;5055201;28;20740;-61
2024/02/24 11:58:56;;;;;;;4.40;2.53;;;9.30;1.00;;;;;;5055099;28;20462;-61
2024/02/24 12:01:24;;;;;;;3.33;1.90;;;8.70;1.00;;;;;;5055353;28;20823;-61
2024/02/24 12:03:53;;;;;;;3.50;2.20;;;8.40;1.00;;;;;;5055264;27;20521;-61
2024/02/24 12:06:23;;;;;;;3.30;1.80;;;8.10;1.00;;;;;;5054505;28;20549;-62
2024/02/24 12:08:51;;;;;;;2.90;1.93;;;8.30;1.00;;;;;;5053731;28;20462;-62
2024/02/24 12:11:19;;;;;;;2.83;1.93;;;8.30;1.00;;;;;;5055275;28;20765;-61
2024/02/24 12:13:47;;;;;;;3.50;1.97;;;8.40;1.00;;;;;;5054736;28;20511;-62
2024/02/24 12:16:15;;;;;;;2.97;1.53;;;8.80;1.00;;;;;;5054536;27;20462;-62
2024/02/24 12:18:42;;;;;;;4.00;1.70;;;9.20;1.00;;;;;;5055438;27;20519;-62
2024/02/24 12:21:11;;;;;;;2.67;1.50;;;9.10;1.00;;;;;;5055973;27;20459;-61
2024/02/24 12:23:41;;;;;;;2.87;1.80;;;9.10;1.00;;;;;;5055010;27;20489;-61
2024/02/24 12:26:16;;;;;;;7.47;2.90;;;9.00;1.00;;;;;;5054612;28;20459;-61
2024/02/24 12:28:47;;;;;;;3.77;2.73;;;8.70;1.00;;;;;;5054139;28;20457;-61
2024/02/24 12:31:15;;;;;;;3.33;1.70;;;8.60;1.00;;;;;;5053663;28;20557;-61
2024/02/24 12:33:44;;;;;;;4.77;2.03;;;8.30;1.00;;;;;;5053787;28;20468;-62
2024/02/24 12:36:11;;;;;;;3.67;2.20;;;8.00;1.00;;;;;;5054146;28;20485;-62
2024/02/24 12:38:41;;;;;;;2.10;1.50;;;7.60;1.00;;;;;;5054983;28;20462;-61
2024/02/24 12:41:09;;;;;;;2.70;1.80;;;7.50;1.00;;;;;;5056111;27;20473;-62
2024/02/24 12:43:38;;;;;;;4.93;2.70;;;7.40;1.00;;;;;;5056665;27;20541;-61
2024/02/24 12:46:06;;;;;;;2.60;1.70;;;7.40;1.00;;;;;;5055709;28;20463;-62
2024/02/24 12:48:34;;;;;;;3.50;2.27;;;7.30;1.00;;;;;;5055674;27;20428;-61
2024/02/24 12:51:01;;;;;;;5.83;2.60;;;7.20;1.00;;;;;;5055651;27;20465;-62
2024/02/24 12:53:29;;;;;;;4.90;3.00;;;7.20;1.00;;;;;;5055207;28;20536;-62
2024/02/24 12:55:59;;;;;;;5.37;2.33;;;7.20;1.00;;;;;;5055775;27;20454;-62
2024/02/24 12:58:27;;;;;;;4.00;2.23;;;6.90;1.00;;;;;;5055249;28;20468;-61
2024/02/24 13:00:56;;;;;;;3.30;2.37;;;6.90;1.00;;;;;;5055156;28;20511;-63
2024/02/24 13:03:24;;;;;;;3.33;2.20;;;6.70;1.00;;;;;;5055181;28;20867;-63
2024/02/24 13:05:51;;;;;;;3.07;2.30;;;6.50;1.00;;;;;;5055302;28;20939;-66
2024/02/24 13:08:18;;;;;;;5.70;4.10;;;6.60;91.60;;;;;;5055363;27;20891;-62